Toomsuba, MS (39364)

3:26 PM CDT on July 05, 2015 (GMT -0500)
Hill Country Community | | Change Station
CLOSE
Current Station
Personal Weather Station
Location: Meridian, MS
Elevation: 440 ft
Nearby Weather Stations

Elev 440 ft 32.47 °N, 88.66 °W | Updated 13 minutes ago

Rain
Rain
69.8 °F
Feels Like 69.8 °F
N
0.0
Wind Variable Wind from South

Today
High -- | Low -- °F
--% Chance of Precip.
Yesterday
High -- | Low -- °F
Precip. -- in
5:52 AM 8:04 PM
Waning Gibbous, 82% visible
Pressure 30.14 in
Visibility 10.0 miles
Clouds Few 200 ft
Mostly Cloudy 9000 ft
Overcast 11000 ft
Dew Point 69 °F
Humidity 97%
Rainfall 0.75 in
Snow Depth Not available.
UV 3 out of 12
Pollen .50 out of 12
Air Quality Not available.
Flu Activity Not available.
SPECI KNMM 052019Z AUTO 20004KT 10SM -RA FEW002 BKN090 OVC110 22/21 A3014 RMK AO2 P0001 T02170206 $

More Conditions Fewer Conditions

Pressure 30.14 in
Visibility 10.0 miles
Clouds Few 200 ft
Mostly Cloudy 9000 ft
Overcast 11000 ft
Dew Point 69 °F
Humidity 97%
Rainfall 0.75 in
Snow Depth Not available.
UV 3 out of 12
Pollen .50 out of 12
Air Quality Not available.
Flu Activity Not available.
SPECI KNMM 052019Z AUTO 20004KT 10SM -RA FEW002 BKN090 OVC110 22/21 A3014 RMK AO2 P0001 T02170206 $

More Conditions Fewer Conditions

10-Day Weather Forecast

×

Almanac

Astronomy

Jul. 05, 2015 Rise Set
Actual Time
Civil Twilight
Nautical Twilight
Astronomical Twilight
Moon
Length of Visible Light
Length of Day
Tomorrow will be .
, % of the Moon is Illuminated

Today's Extremes

State Highs State Lows

Community

WunderPhotos

Upload Photos

1,835,375 photos uploaded!

WunderBlogs® & News

Nearby

Air Quality

  Air Quality AQ Index Pollutant
Not available.

Snow Depth

Station Depth Elevation

Earthquake Activity

City Distance Mag. Time & Date
Minimum magnitude displayed is 2.5.

Coastal Water Temperatures

Place Temperature

Stations

Nearby Weather Stations

Station Location Temp. Windchill Dew Point Humidity Wind Precip. Elev Updated Type